sensor_id;sensor_type;location;lat;lon;timestamp;P1;durP1;ratioP1;P2;durP2;ratioP2
1925;SDS011;964;42.606;23.588;2023-06-01T00:02:26;8.60;;;7.20;;
1925;SDS011;964;42.606;23.588;2023-06-01T00:04:53;8.73;;;6.80;;
1925;SDS011;964;42.606;23.588;2023-06-01T00:07:21;8.33;;;6.00;;
1925;SDS011;964;42.606;23.588;2023-06-01T00:09:48;9.83;;;6.63;;
1925;SDS011;964;42.606;23.588;2023-06-01T00:12:15;10.13;;;6.80;;
1925;SDS011;964;42.606;23.588;2023-06-01T00:14:42;7.80;;;6.70;;
1925;SDS011;964;42.606;23.588;2023-06-01T00:17:08;9.53;;;7.40;;
1925;SDS011;964;42.606;23.588;2023-06-01T00:19:35;7.33;;;6.33;;
1925;SDS011;964;42.606;23.588;2023-06-01T00:22:03;8.27;;;7.07;;
1925;SDS011;964;42.606;23.588;2023-06-01T00:24:33;11.23;;;6.57;;
1925;SDS011;964;42.606;23.588;2023-06-01T00:27:00;7.43;;;6.63;;
1925;SDS011;964;42.606;23.588;2023-06-01T00:29:26;8.73;;;6.90;;
1925;SDS011;964;42.606;23.588;2023-06-01T00:31:53;11.47;;;7.53;;
1925;SDS011;964;42.606;23.588;2023-06-01T00:34:20;10.10;;;7.73;;
1925;SDS011;964;42.606;23.588;2023-06-01T00:36:47;8.60;;;7.37;;
1925;SDS011;964;42.606;23.588;2023-06-01T00:39:14;7.60;;;6.60;;
1925;SDS011;964;42.606;23.588;2023-06-01T00:41:42;9.50;;;7.33;;
1925;SDS011;964;42.606;23.588;2023-06-01T00:44:09;9.60;;;6.33;;
1925;SDS011;964;42.606;23.588;2023-06-01T00:46:35;9.83;;;6.70;;
1925;SDS011;964;42.606;23.588;2023-06-01T00:49:03;8.33;;;6.33;;
1925;SDS011;964;42.606;23.588;2023-06-01T00:51:30;8.40;;;6.77;;
1925;SDS011;964;42.606;23.588;2023-06-01T00:53:59;7.70;;;6.43;;
1925;SDS011;964;42.606;23.588;2023-06-01T00:56:26;9.33;;;6.70;;
1925;SDS011;964;42.606;23.588;2023-06-01T00:58:55;10.60;;;7.30;;
1925;SDS011;964;42.606;23.588;2023-06-01T01:01:22;9.67;;;7.17;;
1925;SDS011;964;42.606;23.588;2023-06-01T01:03:49;14.53;;;8.20;;
1925;SDS011;964;42.606;23.588;2023-06-01T01:06:25;9.33;;;6.93;;
1925;SDS011;964;42.606;23.588;2023-06-01T01:09:04;7.77;;;6.17;;
1925;SDS011;964;42.606;23.588;2023-06-01T01:11:41;25.40;;;8.70;;
1925;SDS011;964;42.606;23.588;2023-06-01T01:14:19;9.90;;;6.20;;
1925;SDS011;964;42.606;23.588;2023-06-01T01:16:50;9.00;;;6.10;;
1925;SDS011;964;42.606;23.588;2023-06-01T01:19:35;7.80;;;6.10;;
1925;SDS011;964;42.606;23.588;2023-06-01T01:22:34;12.47;;;6.40;;
1925;SDS011;964;42.606;23.588;2023-06-01T01:25:20;9.73;;;6.93;;
1925;SDS011;964;42.606;23.588;2023-06-01T01:28:02;11.37;;;6.87;;
1925;SDS011;964;42.606;23.588;2023-06-01T01:30:38;6.60;;;5.60;;
1925;SDS011;964;42.606;23.588;2023-06-01T01:33:07;10.03;;;5.67;;
1925;SDS011;964;42.606;23.588;2023-06-01T01:35:36;7.00;;;5.73;;
1925;SDS011;964;42.606;23.588;2023-06-01T01:38:03;7.77;;;6.20;;
1925;SDS011;964;42.606;23.588;2023-06-01T01:40:30;7.37;;;5.77;;
1925;SDS011;964;42.606;23.588;2023-06-01T01:42:57;9.40;;;6.20;;
1925;SDS011;964;42.606;23.588;2023-06-01T01:45:25;8.00;;;5.97;;
1925;SDS011;964;42.606;23.588;2023-06-01T01:47:55;7.90;;;6.20;;
1925;SDS011;964;42.606;23.588;2023-06-01T01:50:26;7.50;;;6.40;;
1925;SDS011;964;42.606;23.588;2023-06-01T01:52:56;6.13;;;5.40;;
1925;SDS011;964;42.606;23.588;2023-06-01T01:55:23;8.90;;;5.63;;
1925;SDS011;964;42.606;23.588;2023-06-01T01:57:52;7.73;;;6.10;;
1925;SDS011;964;42.606;23.588;2023-06-01T02:00:22;13.10;;;6.63;;
1925;SDS011;964;42.606;23.588;2023-06-01T02:02:49;8.90;;;7.37;;
1925;SDS011;964;42.606;23.588;2023-06-01T02:05:17;8.70;;;6.67;;
1925;SDS011;964;42.606;23.588;2023-06-01T02:07:44;7.43;;;6.40;;
1925;SDS011;964;42.606;23.588;2023-06-01T02:10:11;6.90;;;6.20;;
1925;SDS011;964;42.606;23.588;2023-06-01T02:12:38;7.63;;;6.43;;
1925;SDS011;964;42.606;23.588;2023-06-01T02:15:05;8.00;;;6.43;;
1925;SDS011;964;42.606;23.588;2023-06-01T02:17:33;7.83;;;5.87;;
1925;SDS011;964;42.606;23.588;2023-06-01T02:20:00;10.77;;;6.67;;
1925;SDS011;964;42.606;23.588;2023-06-01T02:22:28;11.57;;;7.90;;
1925;SDS011;964;42.606;23.588;2023-06-01T02:24:55;9.93;;;8.00;;
1925;SDS011;964;42.606;23.588;2023-06-01T02:27:21;12.93;;;8.70;;
1925;SDS011;964;42.606;23.588;2023-06-01T02:29:48;14.00;;;9.73;;
1925;SDS011;964;42.606;23.588;2023-06-01T02:32:15;11.53;;;8.90;;
1925;SDS011;964;42.606;23.588;2023-06-01T02:34:42;12.80;;;9.60;;
1925;SDS011;964;42.606;23.588;2023-06-01T02:37:08;13.07;;;8.93;;
1925;SDS011;964;42.606;23.588;2023-06-01T02:39:37;11.30;;;8.50;;
1925;SDS011;964;42.606;23.588;2023-06-01T02:42:04;12.50;;;9.00;;
1925;SDS011;964;42.606;23.588;2023-06-01T02:44:31;11.00;;;8.07;;
1925;SDS011;964;42.606;23.588;2023-06-01T02:46:58;9.37;;;7.10;;
1925;SDS011;964;42.606;23.588;2023-06-01T02:49:24;10.23;;;6.93;;
1925;SDS011;964;42.606;23.588;2023-06-01T02:51:51;8.00;;;6.87;;
1925;SDS011;964;42.606;23.588;2023-06-01T02:54:18;9.60;;;7.43;;
1925;SDS011;964;42.606;23.588;2023-06-01T02:56:46;8.13;;;7.00;;
1925;SDS011;964;42.606;23.588;2023-06-01T02:59:12;11.60;;;8.63;;
1925;SDS011;964;42.606;23.588;2023-06-01T03:01:39;13.90;;;9.00;;
1925;SDS011;964;42.606;23.588;2023-06-01T03:04:06;16.60;;;10.37;;
1925;SDS011;964;42.606;23.588;2023-06-01T03:06:33;14.37;;;9.67;;
1925;SDS011;964;42.606;23.588;2023-06-01T03:09:01;14.00;;;9.23;;
1925;SDS011;964;42.606;23.588;2023-06-01T03:11:28;11.90;;;8.03;;
1925;SDS011;964;42.606;23.588;2023-06-01T03:13:56;12.10;;;8.20;;
1925;SDS011;964;42.606;23.588;2023-06-01T03:16:23;14.70;;;9.13;;
1925;SDS011;964;42.606;23.588;2023-06-01T03:18:50;13.73;;;9.20;;
1925;SDS011;964;42.606;23.588;2023-06-01T03:21:18;12.73;;;9.60;;
1925;SDS011;964;42.606;23.588;2023-06-01T03:23:44;12.43;;;8.83;;
1925;SDS011;964;42.606;23.588;2023-06-01T03:26:11;13.83;;;8.90;;
1925;SDS011;964;42.606;23.588;2023-06-01T03:28:38;12.20;;;9.47;;
1925;SDS011;964;42.606;23.588;2023-06-01T03:31:07;11.97;;;8.47;;
1925;SDS011;964;42.606;23.588;2023-06-01T03:33:36;18.77;;;8.90;;
1925;SDS011;964;42.606;23.588;2023-06-01T03:36:02;10.43;;;8.07;;
1925;SDS011;964;42.606;23.588;2023-06-01T03:38:29;12.90;;;9.20;;
1925;SDS011;964;42.606;23.588;2023-06-01T03:40:56;12.67;;;8.73;;
1925;SDS011;964;42.606;23.588;2023-06-01T03:43:22;18.50;;;10.17;;
1925;SDS011;964;42.606;23.588;2023-06-01T03:45:49;15.03;;;8.97;;
1925;SDS011;964;42.606;23.588;2023-06-01T03:48:17;14.80;;;9.83;;
1925;SDS011;964;42.606;23.588;2023-06-01T03:50:44;16.00;;;9.87;;
1925;SDS011;964;42.606;23.588;2023-06-01T03:53:12;14.90;;;8.77;;
1925;SDS011;964;42.606;23.588;2023-06-01T03:55:38;13.50;;;9.07;;
1925;SDS011;964;42.606;23.588;2023-06-01T03:58:05;16.10;;;9.97;;
1925;SDS011;964;42.606;23.588;2023-06-01T04:00:32;17.93;;;10.90;;
1925;SDS011;964;42.606;23.588;2023-06-01T04:02:59;19.87;;;11.20;;
1925;SDS011;964;42.606;23.588;2023-06-01T04:05:30;13.73;;;9.70;;
1925;SDS011;964;42.606;23.588;2023-06-01T04:07:57;25.23;;;11.73;;
1925;SDS011;964;42.606;23.588;2023-06-01T04:10:24;18.87;;;12.77;;
1925;SDS011;964;42.606;23.588;2023-06-01T04:12:52;20.30;;;13.37;;
1925;SDS011;964;42.606;23.588;2023-06-01T04:15:19;20.23;;;12.97;;
1925;SDS011;964;42.606;23.588;2023-06-01T04:17:46;18.30;;;12.90;;
1925;SDS011;964;42.606;23.588;2023-06-01T04:20:15;17.00;;;12.67;;
1925;SDS011;964;42.606;23.588;2023-06-01T04:22:44;13.03;;;10.80;;
1925;SDS011;964;42.606;23.588;2023-06-01T04:25:13;14.63;;;10.90;;
1925;SDS011;964;42.606;23.588;2023-06-01T04:27:42;15.27;;;12.23;;
1925;SDS011;964;42.606;23.588;2023-06-01T04:30:11;16.20;;;11.33;;
1925;SDS011;964;42.606;23.588;2023-06-01T04:32:38;16.40;;;11.33;;
1925;SDS011;964;42.606;23.588;2023-06-01T04:35:07;18.03;;;10.67;;
1925;SDS011;964;42.606;23.588;2023-06-01T04:37:34;13.73;;;10.90;;
1925;SDS011;964;42.606;23.588;2023-06-01T04:40:05;15.27;;;11.53;;
1925;SDS011;964;42.606;23.588;2023-06-01T04:42:33;17.10;;;11.93;;
1925;SDS011;964;42.606;23.588;2023-06-01T04:45:00;18.90;;;13.57;;
1925;SDS011;964;42.606;23.588;2023-06-01T04:47:29;17.10;;;13.10;;
1925;SDS011;964;42.606;23.588;2023-06-01T04:49:56;21.53;;;14.07;;
1925;SDS011;964;42.606;23.588;2023-06-01T04:52:23;20.87;;;14.13;;
1925;SDS011;964;42.606;23.588;2023-06-01T04:54:49;22.53;;;14.40;;
1925;SDS011;964;42.606;23.588;2023-06-01T04:57:17;18.00;;;13.43;;
1925;SDS011;964;42.606;23.588;2023-06-01T04:59:44;15.47;;;12.10;;
1925;SDS011;964;42.606;23.588;2023-06-01T05:02:11;19.30;;;13.37;;
1925;SDS011;964;42.606;23.588;2023-06-01T05:04:38;19.60;;;13.40;;
1925;SDS011;964;42.606;23.588;2023-06-01T05:07:05;22.70;;;14.27;;
1925;SDS011;964;42.606;23.588;2023-06-01T05:09:31;22.50;;;13.77;;
1925;SDS011;964;42.606;23.588;2023-06-01T05:11:58;18.60;;;13.33;;
1925;SDS011;964;42.606;23.588;2023-06-01T05:14:26;17.93;;;12.90;;
1925;SDS011;964;42.606;23.588;2023-06-01T05:16:53;14.80;;;12.27;;
1925;SDS011;964;42.606;23.588;2023-06-01T05:19:20;15.13;;;11.53;;
1925;SDS011;964;42.606;23.588;2023-06-01T05:21:47;19.37;;;12.20;;
1925;SDS011;964;42.606;23.588;2023-06-01T05:24:14;15.90;;;11.73;;
1925;SDS011;964;42.606;23.588;2023-06-01T05:26:41;22.53;;;12.90;;
1925;SDS011;964;42.606;23.588;2023-06-01T05:29:08;13.60;;;11.30;;
1925;SDS011;964;42.606;23.588;2023-06-01T05:31:36;17.33;;;12.50;;
1925;SDS011;964;42.606;23.588;2023-06-01T05:34:02;15.37;;;11.80;;
1925;SDS011;964;42.606;23.588;2023-06-01T05:36:29;17.40;;;12.00;;
1925;SDS011;964;42.606;23.588;2023-06-01T05:38:57;16.53;;;12.13;;
1925;SDS011;964;42.606;23.588;2023-06-01T05:41:23;17.80;;;11.93;;
1925;SDS011;964;42.606;23.588;2023-06-01T05:43:50;17.30;;;12.73;;
1925;SDS011;964;42.606;23.588;2023-06-01T05:46:18;16.60;;;13.10;;
1925;SDS011;964;42.606;23.588;2023-06-01T05:48:46;17.10;;;12.70;;
1925;SDS011;964;42.606;23.588;2023-06-01T05:51:13;16.77;;;13.30;;
1925;SDS011;964;42.606;23.588;2023-06-01T05:53:40;17.20;;;12.03;;
1925;SDS011;964;42.606;23.588;2023-06-01T05:56:07;17.67;;;13.30;;
1925;SDS011;964;42.606;23.588;2023-06-01T05:58:34;16.17;;;11.87;;
1925;SDS011;964;42.606;23.588;2023-06-01T06:01:00;19.17;;;12.07;;
1925;SDS011;964;42.606;23.588;2023-06-01T06:03:28;15.17;;;11.90;;
1925;SDS011;964;42.606;23.588;2023-06-01T06:05:56;13.83;;;11.10;;
1925;SDS011;964;42.606;23.588;2023-06-01T06:08:22;15.27;;;12.17;;
1925;SDS011;964;42.606;23.588;2023-06-01T06:10:49;14.07;;;12.03;;
1925;SDS011;964;42.606;23.588;2023-06-01T06:13:16;17.13;;;12.47;;
1925;SDS011;964;42.606;23.588;2023-06-01T06:15:42;15.70;;;11.63;;
1925;SDS011;964;42.606;23.588;2023-06-01T06:18:09;14.67;;;11.77;;
1925;SDS011;964;42.606;23.588;2023-06-01T06:20:36;14.43;;;11.60;;
1925;SDS011;964;42.606;23.588;2023-06-01T06:23:04;16.30;;;11.67;;
1925;SDS011;964;42.606;23.588;2023-06-01T06:25:31;13.87;;;10.93;;
1925;SDS011;964;42.606;23.588;2023-06-01T06:27:57;14.43;;;10.70;;
1925;SDS011;964;42.606;23.588;2023-06-01T06:30:24;11.47;;;10.00;;
1925;SDS011;964;42.606;23.588;2023-06-01T06:32:51;11.87;;;10.37;;
1925;SDS011;964;42.606;23.588;2023-06-01T06:35:18;10.70;;;9.20;;
1925;SDS011;964;42.606;23.588;2023-06-01T06:37:44;14.70;;;10.20;;
1925;SDS011;964;42.606;23.588;2023-06-01T06:40:12;12.20;;;9.93;;
1925;SDS011;964;42.606;23.588;2023-06-01T06:42:39;17.13;;;10.40;;
1925;SDS011;964;42.606;23.588;2023-06-01T06:45:07;15.23;;;10.33;;
1925;SDS011;964;42.606;23.588;2023-06-01T06:47:34;11.07;;;9.53;;
1925;SDS011;964;42.606;23.588;2023-06-01T06:50:01;13.50;;;9.47;;
1925;SDS011;964;42.606;23.588;2023-06-01T06:52:28;10.80;;;8.67;;
1925;SDS011;964;42.606;23.588;2023-06-01T06:54:54;11.80;;;9.87;;
1925;SDS011;964;42.606;23.588;2023-06-01T06:57:22;12.33;;;9.30;;
1925;SDS011;964;42.606;23.588;2023-06-01T06:59:49;12.77;;;9.40;;
1925;SDS011;964;42.606;23.588;2023-06-01T07:02:16;10.77;;;9.27;;
1925;SDS011;964;42.606;23.588;2023-06-01T07:04:42;14.13;;;10.50;;
1925;SDS011;964;42.606;23.588;2023-06-01T07:07:09;11.40;;;9.33;;
1925;SDS011;964;42.606;23.588;2023-06-01T07:09:36;14.03;;;9.93;;
1925;SDS011;964;42.606;23.588;2023-06-01T07:12:02;10.50;;;8.33;;
1925;SDS011;964;42.606;23.588;2023-06-01T07:14:32;9.33;;;8.10;;
1925;SDS011;964;42.606;23.588;2023-06-01T07:16:59;12.13;;;9.53;;
1925;SDS011;964;42.606;23.588;2023-06-01T07:19:25;12.13;;;9.00;;
1925;SDS011;964;42.606;23.588;2023-06-01T07:21:58;17.17;;;8.93;;
1925;SDS011;964;42.606;23.588;2023-06-01T07:24:25;10.27;;;8.30;;
1925;SDS011;964;42.606;23.588;2023-06-01T07:26:52;10.53;;;9.00;;
1925;SDS011;964;42.606;23.588;2023-06-01T07:29:20;10.37;;;7.87;;
1925;SDS011;964;42.606;23.588;2023-06-01T07:31:50;10.07;;;8.97;;
1925;SDS011;964;42.606;23.588;2023-06-01T07:34:18;11.40;;;9.03;;
1925;SDS011;964;42.606;23.588;2023-06-01T07:36:45;10.77;;;9.20;;
1925;SDS011;964;42.606;23.588;2023-06-01T07:39:12;10.80;;;9.60;;
1925;SDS011;964;42.606;23.588;2023-06-01T07:41:40;9.97;;;8.90;;
1925;SDS011;964;42.606;23.588;2023-06-01T07:44:07;9.43;;;8.43;;
1925;SDS011;964;42.606;23.588;2023-06-01T07:46:34;9.20;;;8.27;;
1925;SDS011;964;42.606;23.588;2023-06-01T07:49:02;11.07;;;9.40;;
1925;SDS011;964;42.606;23.588;2023-06-01T07:51:29;12.40;;;9.23;;
1925;SDS011;964;42.606;23.588;2023-06-01T07:53:56;14.80;;;10.97;;
1925;SDS011;964;42.606;23.588;2023-06-01T07:56:25;11.43;;;8.90;;
1925;SDS011;964;42.606;23.588;2023-06-01T07:58:51;8.33;;;7.53;;
1925;SDS011;964;42.606;23.588;2023-06-01T08:01:19;10.70;;;8.73;;
1925;SDS011;964;42.606;23.588;2023-06-01T08:03:45;11.30;;;8.63;;
1925;SDS011;964;42.606;23.588;2023-06-01T08:06:15;10.60;;;9.10;;
1925;SDS011;964;42.606;23.588;2023-06-01T08:08:42;10.37;;;8.87;;
1925;SDS011;964;42.606;23.588;2023-06-01T08:11:10;8.63;;;7.73;;
1925;SDS011;964;42.606;23.588;2023-06-01T08:13:36;11.30;;;8.90;;
1925;SDS011;964;42.606;23.588;2023-06-01T08:16:03;9.57;;;8.53;;
1925;SDS011;964;42.606;23.588;2023-06-01T08:18:30;10.40;;;8.10;;
1925;SDS011;964;42.606;23.588;2023-06-01T08:20:57;9.43;;;8.47;;
1925;SDS011;964;42.606;23.588;2023-06-01T08:23:26;10.90;;;8.63;;
1925;SDS011;964;42.606;23.588;2023-06-01T08:25:53;12.73;;;7.77;;
1925;SDS011;964;42.606;23.588;2023-06-01T08:28:20;8.23;;;6.93;;
1925;SDS011;964;42.606;23.588;2023-06-01T08:30:46;8.37;;;7.43;;
1925;SDS011;964;42.606;23.588;2023-06-01T08:33:13;13.30;;;9.17;;
1925;SDS011;964;42.606;23.588;2023-06-01T08:35:40;8.10;;;7.30;;
1925;SDS011;964;42.606;23.588;2023-06-01T08:38:07;8.37;;;7.07;;
1925;SDS011;964;42.606;23.588;2023-06-01T08:40:35;9.40;;;7.40;;
1925;SDS011;964;42.606;23.588;2023-06-01T08:43:06;10.33;;;8.17;;
1925;SDS011;964;42.606;23.588;2023-06-01T08:45:38;8.23;;;7.00;;
1925;SDS011;964;42.606;23.588;2023-06-01T08:48:07;11.00;;;8.10;;
1925;SDS011;964;42.606;23.588;2023-06-01T08:50:35;7.80;;;7.00;;
1925;SDS011;964;42.606;23.588;2023-06-01T08:53:02;7.60;;;6.90;;
1925;SDS011;964;42.606;23.588;2023-06-01T08:55:30;7.17;;;6.47;;
1925;SDS011;964;42.606;23.588;2023-06-01T08:57:58;9.13;;;7.13;;
1925;SDS011;964;42.606;23.588;2023-06-01T09:00:25;7.60;;;6.30;;
1925;SDS011;964;42.606;23.588;2023-06-01T09:02:52;7.70;;;6.87;;
1925;SDS011;964;42.606;23.588;2023-06-01T09:05:18;8.47;;;7.67;;
1925;SDS011;964;42.606;23.588;2023-06-01T09:07:45;8.00;;;7.20;;
1925;SDS011;964;42.606;23.588;2023-06-01T09:10:13;9.23;;;6.40;;
1925;SDS011;964;42.606;23.588;2023-06-01T09:12:40;7.70;;;6.87;;
1925;SDS011;964;42.606;23.588;2023-06-01T09:15:19;7.90;;;7.10;;
1925;SDS011;964;42.606;23.588;2023-06-01T09:17:47;7.67;;;6.50;;
1925;SDS011;964;42.606;23.588;2023-06-01T09:20:21;7.47;;;6.40;;
1925;SDS011;964;42.606;23.588;2023-06-01T09:22:49;8.17;;;7.37;;
1925;SDS011;964;42.606;23.588;2023-06-01T09:25:16;7.33;;;6.63;;
1925;SDS011;964;42.606;23.588;2023-06-01T09:27:49;8.20;;;6.50;;
1925;SDS011;964;42.606;23.588;2023-06-01T09:30:17;6.63;;;5.93;;
1925;SDS011;964;42.606;23.588;2023-06-01T09:32:46;6.53;;;5.93;;
1925;SDS011;964;42.606;23.588;2023-06-01T09:35:15;6.70;;;6.10;;
1925;SDS011;964;42.606;23.588;2023-06-01T09:37:53;6.60;;;6.00;;
1925;SDS011;964;42.606;23.588;2023-06-01T09:40:22;6.43;;;5.60;;
1925;SDS011;964;42.606;23.588;2023-06-01T09:42:49;6.27;;;5.67;;
1925;SDS011;964;42.606;23.588;2023-06-01T09:45:17;7.20;;;6.00;;
1925;SDS011;964;42.606;23.588;2023-06-01T09:47:47;6.03;;;5.27;;
1925;SDS011;964;42.606;23.588;2023-06-01T09:50:32;10.97;;;6.33;;
1925;SDS011;964;42.606;23.588;2023-06-01T09:53:00;9.33;;;6.03;;
1925;SDS011;964;42.606;23.588;2023-06-01T09:55:27;7.90;;;6.00;;
1925;SDS011;964;42.606;23.588;2023-06-01T09:57:57;7.40;;;6.70;;
1925;SDS011;964;42.606;23.588;2023-06-01T10:00:44;11.30;;;6.80;;
1925;SDS011;964;42.606;23.588;2023-06-01T10:03:12;9.77;;;7.00;;
1925;SDS011;964;42.606;23.588;2023-06-01T10:05:39;8.73;;;6.80;;
1925;SDS011;964;42.606;23.588;2023-06-01T10:08:08;6.33;;;5.73;;
1925;SDS011;964;42.606;23.588;2023-06-01T10:10:38;7.00;;;6.23;;
1925;SDS011;964;42.606;23.588;2023-06-01T10:13:05;11.40;;;6.50;;
1925;SDS011;964;42.606;23.588;2023-06-01T10:15:32;9.17;;;6.80;;
1925;SDS011;964;42.606;23.588;2023-06-01T10:18:00;6.80;;;6.20;;
1925;SDS011;964;42.606;23.588;2023-06-01T10:20:27;6.83;;;6.13;;
1925;SDS011;964;42.606;23.588;2023-06-01T10:22:54;9.73;;;6.10;;
1925;SDS011;964;42.606;23.588;2023-06-01T10:25:21;7.20;;;6.50;;
1925;SDS011;964;42.606;23.588;2023-06-01T10:27:52;7.00;;;5.90;;
1925;SDS011;964;42.606;23.588;2023-06-01T10:30:23;5.80;;;5.17;;
1925;SDS011;964;42.606;23.588;2023-06-01T10:32:50;6.60;;;6.00;;
1925;SDS011;964;42.606;23.588;2023-06-01T10:38:29;5.53;;;5.03;;
1925;SDS011;964;42.606;23.588;2023-06-01T10:43:52;8.50;;;5.57;;
1925;SDS011;964;42.606;23.588;2023-06-01T10:49:13;5.73;;;5.13;;
1925;SDS011;964;42.606;23.588;2023-06-01T10:51:39;5.47;;;4.90;;
1925;SDS011;964;42.606;23.588;2023-06-01T10:54:26;6.13;;;4.53;;
1925;SDS011;964;42.606;23.588;2023-06-01T11:02:44;5.90;;;4.90;;
1925;SDS011;964;42.606;23.588;2023-06-01T11:08:02;8.00;;;5.13;;
1925;SDS011;964;42.606;23.588;2023-06-01T11:13:24;5.07;;;4.00;;
1925;SDS011;964;42.606;23.588;2023-06-01T11:18:58;4.90;;;4.00;;
1925;SDS011;964;42.606;23.588;2023-06-01T11:21:30;5.13;;;4.63;;
1925;SDS011;964;42.606;23.588;2023-06-01T11:24:00;8.77;;;4.03;;
1925;SDS011;964;42.606;23.588;2023-06-01T11:26:34;8.93;;;4.93;;
1925;SDS011;964;42.606;23.588;2023-06-01T11:29:03;6.17;;;4.40;;
1925;SDS011;964;42.606;23.588;2023-06-01T11:31:33;5.67;;;4.23;;
1925;SDS011;964;42.606;23.588;2023-06-01T11:34:03;10.70;;;6.40;;
1925;SDS011;964;42.606;23.588;2023-06-01T11:36:30;8.70;;;5.83;;
1925;SDS011;964;42.606;23.588;2023-06-01T11:39:02;7.00;;;6.30;;
1925;SDS011;964;42.606;23.588;2023-06-01T11:41:33;9.00;;;5.70;;
1925;SDS011;964;42.606;23.588;2023-06-01T11:44:00;7.63;;;5.63;;
1925;SDS011;964;42.606;23.588;2023-06-01T11:46:27;6.80;;;5.60;;
1925;SDS011;964;42.606;23.588;2023-06-01T11:49:00;6.63;;;5.23;;
1925;SDS011;964;42.606;23.588;2023-06-01T11:51:29;7.37;;;5.30;;
1925;SDS011;964;42.606;23.588;2023-06-01T11:53:57;7.17;;;5.23;;
1925;SDS011;964;42.606;23.588;2023-06-01T11:56:30;5.47;;;4.97;;
1925;SDS011;964;42.606;23.588;2023-06-01T11:58:59;5.97;;;5.37;;
1925;SDS011;964;42.606;23.588;2023-06-01T12:01:29;7.00;;;5.17;;
1925;SDS011;964;42.606;23.588;2023-06-01T12:03:55;5.63;;;4.93;;
1925;SDS011;964;42.606;23.588;2023-06-01T12:06:24;4.50;;;4.10;;
1925;SDS011;964;42.606;23.588;2023-06-01T12:08:52;4.93;;;4.43;;
1925;SDS011;964;42.606;23.588;2023-06-01T12:11:19;5.67;;;4.50;;
1925;SDS011;964;42.606;23.588;2023-06-01T12:13:48;4.90;;;4.40;;
1925;SDS011;964;42.606;23.588;2023-06-01T12:16:16;5.67;;;4.57;;
1925;SDS011;964;42.606;23.588;2023-06-01T12:18:43;4.27;;;3.87;;
1925;SDS011;964;42.606;23.588;2023-06-01T12:21:10;7.43;;;4.50;;
1925;SDS011;964;42.606;23.588;2023-06-01T12:23:37;5.33;;;4.70;;
1925;SDS011;964;42.606;23.588;2023-06-01T12:26:04;5.90;;;4.83;;
1925;SDS011;964;42.606;23.588;2023-06-01T12:28:49;4.93;;;4.40;;
1925;SDS011;964;42.606;23.588;2023-06-01T12:31:19;5.60;;;5.10;;
1925;SDS011;964;42.606;23.588;2023-06-01T12:33:46;7.50;;;5.10;;
1925;SDS011;964;42.606;23.588;2023-06-01T12:36:30;5.97;;;5.17;;
1925;SDS011;964;42.606;23.588;2023-06-01T12:38:58;5.47;;;4.30;;
1925;SDS011;964;42.606;23.588;2023-06-01T12:41:25;7.13;;;5.60;;
1925;SDS011;964;42.606;23.588;2023-06-01T12:43:52;4.87;;;4.23;;
1925;SDS011;964;42.606;23.588;2023-06-01T12:46:21;5.03;;;4.53;;
1925;SDS011;964;42.606;23.588;2023-06-01T12:48:49;6.63;;;4.80;;
1925;SDS011;964;42.606;23.588;2023-06-01T12:51:18;4.60;;;4.20;;
1925;SDS011;964;42.606;23.588;2023-06-01T12:53:45;10.23;;;4.77;;
1925;SDS011;964;42.606;23.588;2023-06-01T12:56:12;5.20;;;4.07;;
1925;SDS011;964;42.606;23.588;2023-06-01T12:58:40;4.87;;;4.17;;
1925;SDS011;964;42.606;23.588;2023-06-01T13:01:07;5.27;;;4.30;;
1925;SDS011;964;42.606;23.588;2023-06-01T13:03:35;4.63;;;4.17;;
1925;SDS011;964;42.606;23.588;2023-06-01T13:06:01;5.63;;;3.97;;
1925;SDS011;964;42.606;23.588;2023-06-01T13:08:28;6.67;;;4.57;;
1925;SDS011;964;42.606;23.588;2023-06-01T13:10:55;7.40;;;3.53;;
1925;SDS011;964;42.606;23.588;2023-06-01T13:13:21;4.90;;;4.30;;
1925;SDS011;964;42.606;23.588;2023-06-01T13:15:48;8.43;;;3.90;;
1925;SDS011;964;42.606;23.588;2023-06-01T13:18:15;5.60;;;4.23;;
1925;SDS011;964;42.606;23.588;2023-06-01T13:20:43;6.43;;;4.23;;
1925;SDS011;964;42.606;23.588;2023-06-01T13:23:10;4.87;;;4.37;;
1925;SDS011;964;42.606;23.588;2023-06-01T13:25:37;8.70;;;4.77;;
1925;SDS011;964;42.606;23.588;2023-06-01T13:28:04;5.43;;;4.30;;
1925;SDS011;964;42.606;23.588;2023-06-01T13:30:32;4.97;;;4.47;;
1925;SDS011;964;42.606;23.588;2023-06-01T13:33:00;5.70;;;4.27;;
1925;SDS011;964;42.606;23.588;2023-06-01T13:35:27;10.60;;;4.80;;
1925;SDS011;964;42.606;23.588;2023-06-01T13:37:55;6.77;;;4.20;;
1925;SDS011;964;42.606;23.588;2023-06-01T13:40:22;6.50;;;4.23;;
1925;SDS011;964;42.606;23.588;2023-06-01T13:42:49;6.63;;;4.50;;
1925;SDS011;964;42.606;23.588;2023-06-01T13:45:16;5.47;;;4.37;;
1925;SDS011;964;42.606;23.588;2023-06-01T13:47:43;5.57;;;4.50;;
1925;SDS011;964;42.606;23.588;2023-06-01T13:50:11;10.13;;;4.80;;
1925;SDS011;964;42.606;23.588;2023-06-01T13:52:38;6.23;;;4.60;;
1925;SDS011;964;42.606;23.588;2023-06-01T13:55:07;4.60;;;4.10;;
1925;SDS011;964;42.606;23.588;2023-06-01T13:57:35;4.90;;;4.13;;
1925;SDS011;964;42.606;23.588;2023-06-01T14:00:03;5.87;;;4.87;;
1925;SDS011;964;42.606;23.588;2023-06-01T14:02:30;4.60;;;4.17;;
1925;SDS011;964;42.606;23.588;2023-06-01T14:04:56;6.30;;;4.87;;
1925;SDS011;964;42.606;23.588;2023-06-01T14:07:23;6.70;;;4.57;;
1925;SDS011;964;42.606;23.588;2023-06-01T14:09:50;5.90;;;4.30;;
1925;SDS011;964;42.606;23.588;2023-06-01T14:12:18;4.43;;;4.00;;
1925;SDS011;964;42.606;23.588;2023-06-01T14:14:45;6.07;;;4.27;;
1925;SDS011;964;42.606;23.588;2023-06-01T14:17:12;4.37;;;3.63;;
1925;SDS011;964;42.606;23.588;2023-06-01T14:19:39;6.10;;;4.50;;
1925;SDS011;964;42.606;23.588;2023-06-01T14:22:05;5.03;;;4.53;;
1925;SDS011;964;42.606;23.588;2023-06-01T14:24:32;4.37;;;3.97;;
1925;SDS011;964;42.606;23.588;2023-06-01T14:26:59;5.40;;;4.43;;
1925;SDS011;964;42.606;23.588;2023-06-01T14:29:27;4.87;;;4.37;;
1925;SDS011;964;42.606;23.588;2023-06-01T14:31:53;7.73;;;4.83;;
1925;SDS011;964;42.606;23.588;2023-06-01T14:34:20;7.83;;;4.53;;
1925;SDS011;964;42.606;23.588;2023-06-01T14:36:46;5.13;;;4.03;;
1925;SDS011;964;42.606;23.588;2023-06-01T14:39:13;8.13;;;4.63;;
1925;SDS011;964;42.606;23.588;2023-06-01T14:41:40;6.20;;;4.83;;
1925;SDS011;964;42.606;23.588;2023-06-01T14:44:07;6.17;;;4.20;;
1925;SDS011;964;42.606;23.588;2023-06-01T14:46:35;6.03;;;4.50;;
1925;SDS011;964;42.606;23.588;2023-06-01T14:49:02;4.73;;;4.37;;
1925;SDS011;964;42.606;23.588;2023-06-01T14:51:29;5.10;;;4.13;;
1925;SDS011;964;42.606;23.588;2023-06-01T14:53:56;8.53;;;5.53;;
1925;SDS011;964;42.606;23.588;2023-06-01T14:56:24;5.40;;;4.47;;
1925;SDS011;964;42.606;23.588;2023-06-01T14:58:51;6.30;;;4.80;;
1925;SDS011;964;42.606;23.588;2023-06-01T15:01:17;7.10;;;4.63;;
1925;SDS011;964;42.606;23.588;2023-06-01T15:03:45;6.23;;;4.50;;
1925;SDS011;964;42.606;23.588;2023-06-01T15:06:12;7.10;;;4.97;;
1925;SDS011;964;42.606;23.588;2023-06-01T15:08:39;6.23;;;4.50;;
1925;SDS011;964;42.606;23.588;2023-06-01T15:11:06;4.83;;;4.20;;
1925;SDS011;964;42.606;23.588;2023-06-01T15:13:33;4.13;;;3.80;;
1925;SDS011;964;42.606;23.588;2023-06-01T15:15:59;4.90;;;4.43;;
1925;SDS011;964;42.606;23.588;2023-06-01T15:18:26;6.37;;;4.90;;
1925;SDS011;964;42.606;23.588;2023-06-01T15:20:54;4.80;;;4.30;;
1925;SDS011;964;42.606;23.588;2023-06-01T15:23:22;5.30;;;4.27;;
1925;SDS011;964;42.606;23.588;2023-06-01T15:25:49;5.40;;;4.90;;
1925;SDS011;964;42.606;23.588;2023-06-01T15:28:15;7.47;;;4.67;;
1925;SDS011;964;42.606;23.588;2023-06-01T15:30:42;15.47;;;5.17;;
1925;SDS011;964;42.606;23.588;2023-06-01T15:33:09;4.73;;;4.07;;
1925;SDS011;964;42.606;23.588;2023-06-01T15:35:35;10.27;;;4.77;;
1925;SDS011;964;42.606;23.588;2023-06-01T15:38:04;5.33;;;4.83;;